Inicio METAR Ruta Wind Satelite

Informe Meteorológico

Fecha: 2021/09/21 14:43:55 Local
2021.09.21 19:43 UTC


Operación:VFR
SKCG 211900Z 16008KT 150V210 9999 FEW020 BKN100 32/26 Q1008 RMK A2979 =

SKCG 211800Z 17009KT 160V220 9999 FEW017 BKN100 31/26 Q1009 RMK A2982
SKCG 211700Z 21007KT 160V220 9999 FEW017 BKN100 32/26 Q1010 RMK A2983
SKCG 211600Z 17006KT 130V200 9999 FEW020 BKN200 31/25 Q1011 RMK A2986
SKCG 211500Z 11003KT 9999 FEW020 BKN100 30/26 Q1011 RMK A2987
SKCG 211400Z 07003KT 9999 FEW020 BKN100 29/26 Q1011 RMK A2986

2021/09/21 18:55
TAF SKCG 211630Z 2118/2218 31011KT 9999 FEW017
TEMPO 2118/2120 RA SCT015 BKN080
BECMG 2104/2106 VRB02KT
TEMPO 2207/2211 DZRA SCT015TCU BKN080 TX33/2118Z TN25/2210Z